sensor_id;sensor_type;location;lat;lon;timestamp;pressure;altitude;pressure_sealevel;temperature
80962;BMP280;70424;55.154;14.722;2023-06-04T00:02:00;102210.03;;;9.82
80962;BMP280;70424;55.154;14.722;2023-06-04T00:04:26;102212.03;;;9.82
80962;BMP280;70424;55.154;14.722;2023-06-04T00:06:51;102203.50;;;9.78
80962;BMP280;70424;55.154;14.722;2023-06-04T00:09:16;102208.03;;;9.75
80962;BMP280;70424;55.154;14.722;2023-06-04T00:11:42;102199.47;;;9.71
80962;BMP280;70424;55.154;14.722;2023-06-04T00:14:07;102204.56;;;9.67
80962;BMP280;70424;55.154;14.722;2023-06-04T00:16:32;102206.88;;;9.63
80962;BMP280;70424;55.154;14.722;2023-06-04T00:19:00;102205.97;;;9.61
80962;BMP280;70424;55.154;14.722;2023-06-04T00:21:25;102204.34;;;9.58
80962;BMP280;70424;55.154;14.722;2023-06-04T00:23:51;102207.28;;;9.60
80962;BMP280;70424;55.154;14.722;2023-06-04T00:26:16;102206.69;;;9.61
80962;BMP280;70424;55.154;14.722;2023-06-04T00:28:41;102203.44;;;9.63
80962;BMP280;70424;55.154;14.722;2023-06-04T00:31:06;102203.44;;;9.63
80962;BMP280;70424;55.154;14.722;2023-06-04T00:33:32;102201.97;;;9.62
80962;BMP280;70424;55.154;14.722;2023-06-04T00:35:57;102190.16;;;9.59
80962;BMP280;70424;55.154;14.722;2023-06-04T00:38:22;102198.69;;;9.55
80962;BMP280;70424;55.154;14.722;2023-06-04T00:40:48;102196.50;;;9.54
80962;BMP280;70424;55.154;14.722;2023-06-04T00:43:13;102200.31;;;9.51
80962;BMP280;70424;55.154;14.722;2023-06-04T00:45:38;102197.53;;;9.43
80962;BMP280;70424;55.154;14.722;2023-06-04T00:48:04;102204.66;;;9.39
80962;BMP280;70424;55.154;14.722;2023-06-04T00:50:30;102195.88;;;9.33
80962;BMP280;70424;55.154;14.722;2023-06-04T00:52:58;102204.59;;;9.31
80962;BMP280;70424;55.154;14.722;2023-06-04T00:55:23;102196.97;;;9.30
80962;BMP280;70424;55.154;14.722;2023-06-04T00:57:49;102196.41;;;9.31
80962;BMP280;70424;55.154;14.722;2023-06-04T01:00:14;102194.59;;;9.34
80962;BMP280;70424;55.154;14.722;2023-06-04T01:02:39;102197.34;;;9.34
80962;BMP280;70424;55.154;14.722;2023-06-04T01:07:37;102193.16;;;9.33
80962;BMP280;70424;55.154;14.722;2023-06-04T01:10:05;102195.88;;;9.33
80962;BMP280;70424;55.154;14.722;2023-06-04T01:12:31;102196.41;;;9.31
80962;BMP280;70424;55.154;14.722;2023-06-04T01:14:56;102193.50;;;9.29
80962;BMP280;70424;55.154;14.722;2023-06-04T01:17:31;102191.13;;;9.26
80962;BMP280;70424;55.154;14.722;2023-06-04T01:25:24;102190.03;;;9.21
80962;BMP280;70424;55.154;14.722;2023-06-04T01:27:52;102197.47;;;9.20
80962;BMP280;70424;55.154;14.722;2023-06-04T01:30:30;102201.25;;;9.17
80962;BMP280;70424;55.154;14.722;2023-06-04T01:32:57;102191.63;;;9.16
80962;BMP280;70424;55.154;14.722;2023-06-04T01:35:22;102195.81;;;9.17
80962;BMP280;70424;55.154;14.722;2023-06-04T01:37:48;102193.63;;;9.16
80962;BMP280;70424;55.154;14.722;2023-06-04T01:40:14;102192.50;;;9.11
80962;BMP280;70424;55.154;14.722;2023-06-04T01:42:40;102191.59;;;9.09
80962;BMP280;70424;55.154;14.722;2023-06-04T01:45:05;102191.19;;;9.05
80962;BMP280;70424;55.154;14.722;2023-06-04T01:47:30;102189.19;;;9.05
80962;BMP280;70424;55.154;14.722;2023-06-04T01:49:56;102191.41;;;9.07
80962;BMP280;70424;55.154;14.722;2023-06-04T01:52:21;102176.50;;;9.08
80962;BMP280;70424;55.154;14.722;2023-06-04T01:54:47;102177.41;;;9.03
80962;BMP280;70424;55.154;14.722;2023-06-04T01:57:14;102176.25;;;8.98
80962;BMP280;70424;55.154;14.722;2023-06-04T01:59:40;102178.78;;;8.96
80962;BMP280;70424;55.154;14.722;2023-06-04T02:02:07;102181.53;;;8.96
80962;BMP280;70424;55.154;14.722;2023-06-04T02:04:32;102171.72;;;8.93
80962;BMP280;70424;55.154;14.722;2023-06-04T02:06:57;102171.50;;;8.91
80962;BMP280;70424;55.154;14.722;2023-06-04T02:09:24;102169.13;;;8.87
80962;BMP280;70424;55.154;14.722;2023-06-04T02:11:50;102170.19;;;8.84
80962;BMP280;70424;55.154;14.722;2023-06-04T02:14:16;102169.28;;;8.82
80962;BMP280;70424;55.154;14.722;2023-06-04T02:16:41;102168.38;;;8.79
80962;BMP280;70424;55.154;14.722;2023-06-04T02:19:06;102169.41;;;8.76
80962;BMP280;70424;55.154;14.722;2023-06-04T02:21:31;102167.78;;;8.73
80962;BMP280;70424;55.154;14.722;2023-06-04T02:23:57;102168.31;;;8.72
80962;BMP280;70424;55.154;14.722;2023-06-04T02:26:22;102166.84;;;8.71
80962;BMP280;70424;55.154;14.722;2023-06-04T02:28:48;102165.38;;;8.70
80962;BMP280;70424;55.154;14.722;2023-06-04T02:31:13;102172.84;;;8.69
80962;BMP280;70424;55.154;14.722;2023-06-04T02:33:39;102170.09;;;8.69
80962;BMP280;70424;55.154;14.722;2023-06-04T02:36:04;102168.44;;;8.66
80962;BMP280;70424;55.154;14.722;2023-06-04T02:38:29;102163.34;;;8.62
80962;BMP280;70424;55.154;14.722;2023-06-04T02:40:54;102174.25;;;8.62
80962;BMP280;70424;55.154;14.722;2023-06-04T02:43:20;102165.53;;;8.64
80962;BMP280;70424;55.154;14.722;2023-06-04T02:45:45;102170.44;;;8.66
80962;BMP280;70424;55.154;14.722;2023-06-04T02:48:10;102176.97;;;8.62
80962;BMP280;70424;55.154;14.722;2023-06-04T02:50:35;102161.69;;;8.59
80962;BMP280;70424;55.154;14.722;2023-06-04T02:53:01;102176.06;;;8.60
80962;BMP280;70424;55.154;14.722;2023-06-04T02:55:26;102172.56;;;8.59
80962;BMP280;70424;55.154;14.722;2023-06-04T02:57:51;102172.78;;;8.61
80962;BMP280;70424;55.154;14.722;2023-06-04T03:00:17;102177.53;;;8.61
80962;BMP280;70424;55.154;14.722;2023-06-04T03:02:43;102172.78;;;8.61
80962;BMP280;70424;55.154;14.722;2023-06-04T03:05:09;102172.78;;;8.61
80962;BMP280;70424;55.154;14.722;2023-06-04T03:07:36;102176.56;;;8.58
80962;BMP280;70424;55.154;14.722;2023-06-04T03:10:01;102169.47;;;8.55
80962;BMP280;70424;55.154;14.722;2023-06-04T03:12:26;102165.47;;;8.56
80962;BMP280;70424;55.154;14.722;2023-06-04T03:14:51;102170.38;;;8.58
80962;BMP280;70424;55.154;14.722;2023-06-04T03:17:17;102171.34;;;8.60
80962;BMP280;70424;55.154;14.722;2023-06-04T03:19:42;102168.06;;;8.62
80962;BMP280;70424;55.154;14.722;2023-06-04T03:22:08;102168.25;;;8.64
80962;BMP280;70424;55.154;14.722;2023-06-04T03:24:34;102163.72;;;8.67
80962;BMP280;70424;55.154;14.722;2023-06-04T03:27:00;102158.66;;;8.71
80962;BMP280;70424;55.154;14.722;2023-06-04T03:29:25;102158.84;;;8.73
80962;BMP280;70424;55.154;14.722;2023-06-04T03:31:51;102158.50;;;8.76
80962;BMP280;70424;55.154;14.722;2023-06-04T03:34:16;102156.19;;;8.80
80962;BMP280;70424;55.154;14.722;2023-06-04T03:36:41;102152.38;;;8.83
80962;BMP280;70424;55.154;14.722;2023-06-04T03:39:07;102150.03;;;8.87
80962;BMP280;70424;55.154;14.722;2023-06-04T03:41:32;102153.69;;;8.90
80962;BMP280;70424;55.154;14.722;2023-06-04T03:43:57;102158.09;;;8.93
80962;BMP280;70424;55.154;14.722;2023-06-04T03:46:22;102146.06;;;8.96
80962;BMP280;70424;55.154;14.722;2023-06-04T03:48:51;102149.19;;;9.00
80962;BMP280;70424;55.154;14.722;2023-06-04T03:51:16;102152.13;;;9.02
80962;BMP280;70424;55.154;14.722;2023-06-04T03:53:41;102146.31;;;9.06
80962;BMP280;70424;55.154;14.722;2023-06-04T03:56:06;102147.41;;;9.10
80962;BMP280;70424;55.154;14.722;2023-06-04T03:58:32;102149.97;;;9.16
80962;BMP280;70424;55.154;14.722;2023-06-04T04:00:58;102147.25;;;9.23
80962;BMP280;70424;55.154;14.722;2023-06-04T04:03:23;102150.78;;;9.32
80962;BMP280;70424;55.154;14.722;2023-06-04T04:05:48;102151.53;;;9.40
80962;BMP280;70424;55.154;14.722;2023-06-04T04:08:13;102153.00;;;9.48
80962;BMP280;70424;55.154;14.722;2023-06-04T04:10:41;102147.53;;;9.56
80962;BMP280;70424;55.154;14.722;2023-06-04T04:13:06;102153.75;;;9.64
80962;BMP280;70424;55.154;14.722;2023-06-04T04:15:32;102152.50;;;9.73
80962;BMP280;70424;55.154;14.722;2023-06-04T04:17:57;102157.94;;;9.80
80962;BMP280;70424;55.154;14.722;2023-06-04T04:20:22;102153.94;;;9.89
80962;BMP280;70424;55.154;14.722;2023-06-04T04:22:48;102160.34;;;9.99
80962;BMP280;70424;55.154;14.722;2023-06-04T04:25:13;102156.53;;;10.10
80962;BMP280;70424;55.154;14.722;2023-06-04T04:27:38;102160.88;;;10.21
80962;BMP280;70424;55.154;14.722;2023-06-04T04:30:06;102169.81;;;10.36
80962;BMP280;70424;55.154;14.722;2023-06-04T04:32:31;102166.88;;;10.50
80962;BMP280;70424;55.154;14.722;2023-06-04T04:34:57;102173.75;;;10.66
80962;BMP280;70424;55.154;14.722;2023-06-04T04:37:22;102176.25;;;10.79
80962;BMP280;70424;55.154;14.722;2023-06-04T04:39:47;102171.50;;;10.95
80962;BMP280;70424;55.154;14.722;2023-06-04T04:42:14;102176.16;;;11.09
80962;BMP280;70424;55.154;14.722;2023-06-04T04:44:40;102165.31;;;11.27
80962;BMP280;70424;55.154;14.722;2023-06-04T04:47:05;102155.56;;;11.41
80962;BMP280;70424;55.154;14.722;2023-06-04T04:49:30;102162.56;;;11.59
80962;BMP280;70424;55.154;14.722;2023-06-04T04:51:56;102164.38;;;11.82
80962;BMP280;70424;55.154;14.722;2023-06-04T04:54:21;102172.16;;;12.10
80962;BMP280;70424;55.154;14.722;2023-06-04T04:56:46;102161.97;;;12.45
80962;BMP280;70424;55.154;14.722;2023-06-04T04:59:12;102156.19;;;12.85
80962;BMP280;70424;55.154;14.722;2023-06-04T05:01:37;102158.06;;;13.37
80962;BMP280;70424;55.154;14.722;2023-06-04T05:04:02;102164.00;;;13.98
80962;BMP280;70424;55.154;14.722;2023-06-04T05:06:27;102154.09;;;14.82
80962;BMP280;70424;55.154;14.722;2023-06-04T05:08:52;102161.41;;;15.71
80962;BMP280;70424;55.154;14.722;2023-06-04T05:11:18;102157.09;;;16.55
80962;BMP280;70424;55.154;14.722;2023-06-04T05:13:43;102153.84;;;17.28
80962;BMP280;70424;55.154;14.722;2023-06-04T05:16:09;102155.78;;;17.75
80962;BMP280;70424;55.154;14.722;2023-06-04T05:18:39;102156.56;;;18.00
80962;BMP280;70424;55.154;14.722;2023-06-04T05:21:09;102161.53;;;18.16
80962;BMP280;70424;55.154;14.722;2023-06-04T05:23:36;102168.47;;;18.28
80962;BMP280;70424;55.154;14.722;2023-06-04T05:26:02;102159.34;;;18.39
80962;BMP280;70424;55.154;14.722;2023-06-04T05:28:28;102154.25;;;18.48
80962;BMP280;70424;55.154;14.722;2023-06-04T05:30:53;102156.19;;;18.59
80962;BMP280;70424;55.154;14.722;2023-06-04T05:33:24;102162.69;;;18.77
80962;BMP280;70424;55.154;14.722;2023-06-04T05:35:49;102165.00;;;18.94
80962;BMP280;70424;55.154;14.722;2023-06-04T05:38:14;102160.56;;;19.17
80962;BMP280;70424;55.154;14.722;2023-06-04T05:40:46;102156.91;;;19.41
80962;BMP280;70424;55.154;14.722;2023-06-04T05:43:11;102163.00;;;19.67
80962;BMP280;70424;55.154;14.722;2023-06-04T05:45:37;102164.19;;;19.92
80962;BMP280;70424;55.154;14.722;2023-06-04T05:48:03;102159.63;;;20.14
80962;BMP280;70424;55.154;14.722;2023-06-04T05:50:28;102162.69;;;20.36
80962;BMP280;70424;55.154;14.722;2023-06-04T05:52:55;102165.69;;;20.56
80962;BMP280;70424;55.154;14.722;2023-06-04T05:55:20;102175.16;;;20.82
80962;BMP280;70424;55.154;14.722;2023-06-04T05:57:46;102161.97;;;21.16
80962;BMP280;70424;55.154;14.722;2023-06-04T06:00:11;102164.78;;;21.51
80962;BMP280;70424;55.154;14.722;2023-06-04T06:02:38;102172.97;;;21.83
80962;BMP280;70424;55.154;14.722;2023-06-04T06:05:04;102171.97;;;22.12
80962;BMP280;70424;55.154;14.722;2023-06-04T06:07:29;102176.50;;;22.41
80962;BMP280;70424;55.154;14.722;2023-06-04T06:09:55;102181.06;;;22.71
80962;BMP280;70424;55.154;14.722;2023-06-04T06:12:20;102173.44;;;22.94
80962;BMP280;70424;55.154;14.722;2023-06-04T06:14:45;102169.38;;;23.19
80962;BMP280;70424;55.154;14.722;2023-06-04T06:17:11;102175.94;;;23.49
80962;BMP280;70424;55.154;14.722;2023-06-04T06:19:36;102177.47;;;23.78
80962;BMP280;70424;55.154;14.722;2023-06-04T06:22:02;102177.53;;;24.04
80962;BMP280;70424;55.154;14.722;2023-06-04T06:24:28;102171.88;;;24.25
80962;BMP280;70424;55.154;14.722;2023-06-04T06:26:54;102176.50;;;24.43
80962;BMP280;70424;55.154;14.722;2023-06-04T06:29:19;102176.88;;;24.57
80962;BMP280;70424;55.154;14.722;2023-06-04T06:31:45;102180.81;;;24.74
80962;BMP280;70424;55.154;14.722;2023-06-04T06:34:10;102180.41;;;24.85
80962;BMP280;70424;55.154;14.722;2023-06-04T06:36:35;102184.44;;;25.08
80962;BMP280;70424;55.154;14.722;2023-06-04T06:39:01;102182.91;;;25.31
80962;BMP280;70424;55.154;14.722;2023-06-04T06:41:26;102186.88;;;25.54
80962;BMP280;70424;55.154;14.722;2023-06-04T06:43:51;102186.59;;;25.73
80962;BMP280;70424;55.154;14.722;2023-06-04T06:46:16;102192.56;;;25.92
80962;BMP280;70424;55.154;14.722;2023-06-04T06:48:41;102198.53;;;26.10
80962;BMP280;70424;55.154;14.722;2023-06-04T06:51:10;102199.03;;;26.34
80962;BMP280;70424;55.154;14.722;2023-06-04T06:53:35;102198.72;;;26.58
80962;BMP280;70424;55.154;14.722;2023-06-04T06:56:00;102203.50;;;26.91
80962;BMP280;70424;55.154;14.722;2023-06-04T06:58:25;102211.63;;;27.19
80962;BMP280;70424;55.154;14.722;2023-06-04T07:00:51;102199.38;;;27.46
80962;BMP280;70424;55.154;14.722;2023-06-04T07:03:16;102193.31;;;27.68
80962;BMP280;70424;55.154;14.722;2023-06-04T07:05:41;102202.72;;;27.89
80962;BMP280;70424;55.154;14.722;2023-06-04T07:08:07;102202.97;;;28.13
80962;BMP280;70424;55.154;14.722;2023-06-04T07:10:32;102196.19;;;28.39
80962;BMP280;70424;55.154;14.722;2023-06-04T07:12:57;102207.66;;;28.65
80962;BMP280;70424;55.154;14.722;2023-06-04T07:15:22;102197.22;;;28.80
80962;BMP280;70424;55.154;14.722;2023-06-04T07:17:48;102204.34;;;28.95
80962;BMP280;70424;55.154;14.722;2023-06-04T07:20:13;102202.19;;;28.91
80962;BMP280;70424;55.154;14.722;2023-06-04T07:22:38;102203.72;;;29.06
80962;BMP280;70424;55.154;14.722;2023-06-04T07:25:04;102202.47;;;29.36
80962;BMP280;70424;55.154;14.722;2023-06-04T07:27:29;102218.06;;;29.59
80962;BMP280;70424;55.154;14.722;2023-06-04T07:29:54;102211.09;;;29.76
80962;BMP280;70424;55.154;14.722;2023-06-04T07:32:20;102213.19;;;29.82
80962;BMP280;70424;55.154;14.722;2023-06-04T07:34:45;102215.31;;;29.77
80962;BMP280;70424;55.154;14.722;2023-06-04T07:37:10;102211.78;;;29.75
80962;BMP280;70424;55.154;14.722;2023-06-04T07:39:38;102217.41;;;29.73
80962;BMP280;70424;55.154;14.722;2023-06-04T07:42:04;102211.09;;;29.86
80962;BMP280;70424;55.154;14.722;2023-06-04T07:44:29;102212.50;;;29.85
80962;BMP280;70424;55.154;14.722;2023-06-04T07:46:54;102202.69;;;30.03
80962;BMP280;70424;55.154;14.722;2023-06-04T07:49:20;102206.94;;;30.28
80962;BMP280;70424;55.154;14.722;2023-06-04T07:51:45;102209.06;;;30.52
80962;BMP280;70424;55.154;14.722;2023-06-04T07:54:11;102213.28;;;30.69
80962;BMP280;70424;55.154;14.722;2023-06-04T07:56:37;102208.28;;;30.79
80962;BMP280;70424;55.154;14.722;2023-06-04T07:59:02;102210.47;;;30.63
80962;BMP280;70424;55.154;14.722;2023-06-04T08:01:27;102207.63;;;30.59
80962;BMP280;70424;55.154;14.722;2023-06-04T08:03:52;102210.47;;;30.69
80962;BMP280;70424;55.154;14.722;2023-06-04T08:06:18;102216.75;;;30.79
80962;BMP280;70424;55.154;14.722;2023-06-04T08:08:44;102216.06;;;30.81
80962;BMP280;70424;55.154;14.722;2023-06-04T15:35:46;102222.78;;;22.50
80962;BMP280;70424;55.154;14.722;2023-06-04T15:38:11;102229.31;;;22.56
80962;BMP280;70424;55.154;14.722;2023-06-04T15:40:36;102232.28;;;22.62
80962;BMP280;70424;55.154;14.722;2023-06-04T15:43:02;102236.59;;;22.65
80962;BMP280;70424;55.154;14.722;2023-06-04T15:45:27;102228.78;;;22.62
80962;BMP280;70424;55.154;14.722;2023-06-04T15:47:53;102231.81;;;22.68
80962;BMP280;70424;55.154;14.722;2023-06-04T15:50:18;102229.09;;;22.70
80962;BMP280;70424;55.154;14.722;2023-06-04T15:52:44;102226.41;;;22.72
80962;BMP280;70424;55.154;14.722;2023-06-04T15:55:10;102227.16;;;22.74
80962;BMP280;70424;55.154;14.722;2023-06-04T15:57:35;102232.09;;;22.76
80962;BMP280;70424;55.154;14.722;2023-06-04T16:00:01;102223.03;;;22.75
80962;BMP280;70424;55.154;14.722;2023-06-04T16:02:26;102217.44;;;22.75
80962;BMP280;70424;55.154;14.722;2023-06-04T16:04:52;102228.09;;;22.81
80962;BMP280;70424;55.154;14.722;2023-06-04T16:07:17;102228.88;;;22.84
80962;BMP280;70424;55.154;14.722;2023-06-04T16:09:42;102228.22;;;22.85
80962;BMP280;70424;55.154;14.722;2023-06-04T16:12:08;102234.56;;;22.88
80962;BMP280;70424;55.154;14.722;2023-06-04T16:14:33;102218.00;;;22.92
80962;BMP280;70424;55.154;14.722;2023-06-04T16:16:59;102220.94;;;22.96
80962;BMP280;70424;55.154;14.722;2023-06-04T16:19:24;102219.63;;;22.99
80962;BMP280;70424;55.154;14.722;2023-06-04T16:21:49;102214.13;;;23.01
80962;BMP280;70424;55.154;14.722;2023-06-04T16:24:15;102210.03;;;23.04
80962;BMP280;70424;55.154;14.722;2023-06-04T16:26:41;102204.53;;;23.06
80962;BMP280;70424;55.154;14.722;2023-06-04T16:29:07;102208.88;;;23.11
80962;BMP280;70424;55.154;14.722;2023-06-04T16:31:32;102204.72;;;23.12
80962;BMP280;70424;55.154;14.722;2023-06-04T16:33:58;102204.88;;;23.16
80962;BMP280;70424;55.154;14.722;2023-06-04T16:36:23;102209.84;;;23.20
80962;BMP280;70424;55.154;14.722;2023-06-04T16:38:48;102200.81;;;23.21
80962;BMP280;70424;55.154;14.722;2023-06-04T16:41:14;102204.44;;;23.24
80962;BMP280;70424;55.154;14.722;2023-06-04T16:43:39;102205.97;;;23.29
80962;BMP280;70424;55.154;14.722;2023-06-04T16:46:05;102197.00;;;23.32
80962;BMP280;70424;55.154;14.722;2023-06-04T16:48:30;102201.22;;;23.33
80962;BMP280;70424;55.154;14.722;2023-06-04T16:50:56;102203.91;;;23.29
80962;BMP280;70424;55.154;14.722;2023-06-04T16:53:21;102200.91;;;23.23
80962;BMP280;70424;55.154;14.722;2023-06-04T16:55:46;102197.94;;;23.17
80962;BMP280;70424;55.154;14.722;2023-06-04T16:58:12;102199.16;;;23.12
80962;BMP280;70424;55.154;14.722;2023-06-04T17:00:37;102194.78;;;23.07
80962;BMP280;70424;55.154;14.722;2023-06-04T17:03:03;102192.00;;;23.07
80962;BMP280;70424;55.154;14.722;2023-06-04T17:05:28;102192.00;;;23.07
80962;BMP280;70424;55.154;14.722;2023-06-04T17:07:55;102198.44;;;23.11
80962;BMP280;70424;55.154;14.722;2023-06-04T17:10:22;102200.66;;;23.15
80962;BMP280;70424;55.154;14.722;2023-06-04T17:12:52;102199.34;;;23.18
80962;BMP280;70424;55.154;14.722;2023-06-04T17:15:17;102196.63;;;23.20
80962;BMP280;70424;55.154;14.722;2023-06-04T17:17:43;102202.28;;;23.22
80962;BMP280;70424;55.154;14.722;2023-06-04T17:20:08;102208.63;;;23.25
80962;BMP280;70424;55.154;14.722;2023-06-04T17:22:34;102210.13;;;23.28
80962;BMP280;70424;55.154;14.722;2023-06-04T17:24:59;102204.53;;;23.28
80962;BMP280;70424;55.154;14.722;2023-06-04T17:27:25;102198.88;;;23.26
80962;BMP280;70424;55.154;14.722;2023-06-04T17:29:50;102203.19;;;23.29
80962;BMP280;70424;55.154;14.722;2023-06-04T17:32:15;102206.03;;;23.31
80962;BMP280;70424;55.154;14.722;2023-06-04T17:34:41;102206.75;;;23.31
80962;BMP280;70424;55.154;14.722;2023-06-04T17:37:06;102204.69;;;23.32
80962;BMP280;70424;55.154;14.722;2023-06-04T17:39:32;102203.28;;;23.33
80962;BMP280;70424;55.154;14.722;2023-06-04T17:41:59;102201.22;;;23.33
80962;BMP280;70424;55.154;14.722;2023-06-04T17:44:24;102202.66;;;23.34
80962;BMP280;70424;55.154;14.722;2023-06-04T17:46:49;102199.94;;;23.36
80962;BMP280;70424;55.154;14.722;2023-06-04T17:49:15;102199.94;;;23.36
80962;BMP280;70424;55.154;14.722;2023-06-04T17:51:40;102209.72;;;23.37
80962;BMP280;70424;55.154;14.722;2023-06-04T17:54:06;102202.00;;;23.36
80962;BMP280;70424;55.154;14.722;2023-06-04T17:56:34;102203.50;;;23.39
80962;BMP280;70424;55.154;14.722;2023-06-04T17:59:04;102205.59;;;23.38
80962;BMP280;70424;55.154;14.722;2023-06-04T18:01:30;102207.66;;;23.38
80962;BMP280;70424;55.154;14.722;2023-06-04T18:03:56;102202.94;;;23.42
80962;BMP280;70424;55.154;14.722;2023-06-04T18:06:21;102207.81;;;23.42
80962;BMP280;70424;55.154;14.722;2023-06-04T18:08:46;102209.91;;;23.43
80962;BMP280;70424;55.154;14.722;2023-06-04T18:11:12;102205.06;;;23.44
80962;BMP280;70424;55.154;14.722;2023-06-04T18:13:37;102198.75;;;23.43
80962;BMP280;70424;55.154;14.722;2023-06-04T18:16:03;102201.50;;;23.41
80962;BMP280;70424;55.154;14.722;2023-06-04T18:18:28;102202.72;;;23.36
80962;BMP280;70424;55.154;14.722;2023-06-04T18:20:53;102204.69;;;23.32
80962;BMP280;70424;55.154;14.722;2023-06-04T18:23:19;102205.19;;;23.26
80962;BMP280;70424;55.154;14.722;2023-06-04T18:25:45;102196.50;;;23.16
80962;BMP280;70424;55.154;14.722;2023-06-04T18:28:10;102200.97;;;23.03
80962;BMP280;70424;55.154;14.722;2023-06-04T18:30:36;102206.19;;;22.93
80962;BMP280;70424;55.154;14.722;2023-06-04T18:33:01;102203.69;;;22.82
80962;BMP280;70424;55.154;14.722;2023-06-04T18:35:26;102201.31;;;22.72
80962;BMP280;70424;55.154;14.722;2023-06-04T18:37:52;102201.03;;;22.64
80962;BMP280;70424;55.154;14.722;2023-06-04T18:40:17;102192.44;;;22.58
80962;BMP280;70424;55.154;14.722;2023-06-04T18:42:43;102190.16;;;22.52
80962;BMP280;70424;55.154;14.722;2023-06-04T18:45:09;102183.88;;;22.52
80962;BMP280;70424;55.154;14.722;2023-06-04T18:47:36;102187.56;;;22.58
80962;BMP280;70424;55.154;14.722;2023-06-04T18:50:02;102187.81;;;22.64
80962;BMP280;70424;55.154;14.722;2023-06-04T18:52:27;102186.66;;;22.71
80962;BMP280;70424;55.154;14.722;2023-06-04T18:54:52;102186.06;;;22.75
80962;BMP280;70424;55.154;14.722;2023-06-04T18:57:18;102195.28;;;22.80
80962;BMP280;70424;55.154;14.722;2023-06-04T18:59:43;102198.13;;;22.82
80962;BMP280;70424;55.154;14.722;2023-06-04T19:02:09;102200.34;;;22.85
80962;BMP280;70424;55.154;14.722;2023-06-04T19:04:34;102198.28;;;22.86
80962;BMP280;70424;55.154;14.722;2023-06-04T19:07:02;102197.59;;;22.87
80962;BMP280;70424;55.154;14.722;2023-06-04T19:09:27;102196.25;;;22.88
80962;BMP280;70424;55.154;14.722;2023-06-04T19:11:52;102196.97;;;22.89
80962;BMP280;70424;55.154;14.722;2023-06-04T19:14:18;102196.34;;;22.90
80962;BMP280;70424;55.154;14.722;2023-06-04T19:16:43;102190.78;;;22.90
80962;BMP280;70424;55.154;14.722;2023-06-04T19:19:09;102196.34;;;22.90
80962;BMP280;70424;55.154;14.722;2023-06-04T19:21:35;102194.81;;;22.87
80962;BMP280;70424;55.154;14.722;2023-06-04T19:24:02;102199.13;;;22.90
80962;BMP280;70424;55.154;14.722;2023-06-04T19:26:27;102196.34;;;22.90
80962;BMP280;70424;55.154;14.722;2023-06-04T19:28:53;102199.84;;;22.91
80962;BMP280;70424;55.154;14.722;2023-06-04T19:31:19;102195.63;;;22.90
80962;BMP280;70424;55.154;14.722;2023-06-04T19:33:45;102204.00;;;22.90
80962;BMP280;70424;55.154;14.722;2023-06-04T19:36:11;102201.94;;;22.90
80962;BMP280;70424;55.154;14.722;2023-06-04T19:38:37;102201.13;;;22.88
80962;BMP280;70424;55.154;14.722;2023-06-04T19:41:03;102200.50;;;22.89
80962;BMP280;70424;55.154;14.722;2023-06-04T19:43:28;102199.75;;;22.89
80962;BMP280;70424;55.154;14.722;2023-06-04T19:45:53;102203.28;;;22.89
80962;BMP280;70424;55.154;14.722;2023-06-04T19:48:22;102199.03;;;22.88
80962;BMP280;70424;55.154;14.722;2023-06-04T19:50:48;102202.53;;;22.89
80962;BMP280;70424;55.154;14.722;2023-06-04T19:53:13;102206.06;;;22.89
80962;BMP280;70424;55.154;14.722;2023-06-04T19:55:39;102204.00;;;22.90
80962;BMP280;70424;55.154;14.722;2023-06-04T19:58:04;102211.66;;;22.89
80962;BMP280;70424;55.154;14.722;2023-06-04T20:00:30;102212.97;;;22.88
80962;BMP280;70424;55.154;14.722;2023-06-04T20:02:56;102220.63;;;22.88
80962;BMP280;70424;55.154;14.722;2023-06-04T20:05:21;102215.06;;;22.88
80962;BMP280;70424;55.154;14.722;2023-06-04T20:07:47;102219.28;;;22.89
80962;BMP280;70424;55.154;14.722;2023-06-04T20:10:14;102226.94;;;22.88
80962;BMP280;70424;55.154;14.722;2023-06-04T20:12:39;102218.50;;;22.86
80962;BMP280;70424;55.154;14.722;2023-06-04T20:15:05;102228.28;;;22.87
80962;BMP280;70424;55.154;14.722;2023-06-04T20:17:31;102227.59;;;22.87
80962;BMP280;70424;55.154;14.722;2023-06-04T20:19:56;102226.88;;;22.86
80962;BMP280;70424;55.154;14.722;2023-06-04T20:22:22;102227.59;;;22.87
80962;BMP280;70424;55.154;14.722;2023-06-04T20:24:48;102226.16;;;22.86
80962;BMP280;70424;55.154;14.722;2023-06-04T20:27:13;102228.94;;;22.86
80962;BMP280;70424;55.154;14.722;2023-06-04T20:29:41;102226.88;;;22.86
80962;BMP280;70424;55.154;14.722;2023-06-04T20:32:07;102229.66;;;22.86
80962;BMP280;70424;55.154;14.722;2023-06-04T20:34:32;102240.81;;;22.86
80962;BMP280;70424;55.154;14.722;2023-06-04T20:36:57;102238.75;;;22.87
80962;BMP280;70424;55.154;14.722;2023-06-04T20:39:27;102238.03;;;22.86
80962;BMP280;70424;55.154;14.722;2023-06-04T20:41:56;102238.66;;;22.85
80962;BMP280;70424;55.154;14.722;2023-06-04T20:44:22;102244.25;;;22.85
80962;BMP280;70424;55.154;14.722;2023-06-04T20:46:47;102246.31;;;22.84
80962;BMP280;70424;55.154;14.722;2023-06-04T20:49:13;102248.38;;;22.84
80962;BMP280;70424;55.154;14.722;2023-06-04T20:51:38;102246.25;;;22.82
80962;BMP280;70424;55.154;14.722;2023-06-04T20:54:04;102244.19;;;22.83
80962;BMP280;70424;55.154;14.722;2023-06-04T20:56:29;102250.38;;;22.81
80962;BMP280;70424;55.154;14.722;2023-06-04T20:58:55;102246.88;;;22.81
80962;BMP280;70424;55.154;14.722;2023-06-04T21:01:20;102251.06;;;22.80
80962;BMP280;70424;55.154;14.722;2023-06-04T21:03:45;102252.41;;;22.79
80962;BMP280;70424;55.154;14.722;2023-06-04T21:06:11;102252.41;;;22.79
80962;BMP280;70424;55.154;14.722;2023-06-04T21:08:36;102255.84;;;22.77
80962;BMP280;70424;55.154;14.722;2023-06-04T21:11:02;102255.84;;;22.77
80962;BMP280;70424;55.154;14.722;2023-06-04T21:13:27;102256.47;;;22.75